Time;durP1;ratioP1;P1;durP2;ratioP2;P2;SDS_P1;SDS_P2;PMS_P1;PMS_P2;Temp;Humidity;BMP_temperature;BMP_pressure;BME280_temperature;BME280_humidity;BME280_pressure;Samples;Min_cycle;Max_cycle;Signal;HPM_P1;HPM_P2
2022/04/06 00:02:07;;;;;;;14.25;12.70;;;11.90;99.90;;;;;;5072365;28;20628;-64
2022/04/06 00:04:34;;;;;;;14.50;13.10;;;11.90;99.90;;;;;;5073666;28;20224;-63
2022/04/06 00:07:01;;;;;;;21.45;18.58;;;11.90;99.90;;;;;;5072595;28;20224;-64
2022/04/06 00:09:28;;;;;;;45.58;34.60;;;11.90;99.90;;;;;;5073364;28;20249;-65
2022/04/06 00:11:54;;;;;;;15.45;13.90;;;11.90;99.90;;;;;;5072753;28;20247;-64
2022/04/06 00:14:23;;;;;;;12.80;11.70;;;11.90;99.90;;;;;;5072802;28;20686;-64
2022/04/06 00:16:50;;;;;;;15.70;14.20;;;12.00;99.90;;;;;;5071572;28;20231;-64
2022/04/06 00:19:17;;;;;;;36.13;28.63;;;11.90;99.90;;;;;;5060972;28;20585;-64
2022/04/06 00:21:45;;;;;;;17.55;15.85;;;11.90;99.90;;;;;;5073243;28;20235;-64
2022/04/06 00:24:12;;;;;;;12.50;11.25;;;11.90;99.90;;;;;;5072633;28;20283;-64
2022/04/06 00:26:38;;;;;;;77.03;51.65;;;11.80;99.90;;;;;;5061437;28;20295;-64
2022/04/06 00:29:05;;;;;;;37.03;28.83;;;11.90;99.90;;;;;;5065467;28;20535;-64
2022/04/06 00:31:33;;;;;;;17.45;15.55;;;11.80;99.90;;;;;;5072494;28;20239;-64
2022/04/06 00:34:00;;;;;;;18.00;16.10;;;11.90;99.90;;;;;;5070564;28;20221;-64
2022/04/06 00:36:27;;;;;;;23.63;21.08;;;11.90;99.90;;;;;;5056525;28;22863;-64
2022/04/06 00:38:55;;;;;;;14.43;12.60;;;11.90;99.90;;;;;;5068777;28;20228;-64
2022/04/06 00:41:22;;;;;;;15.13;13.63;;;11.90;99.90;;;;;;5067983;28;20235;-64
2022/04/06 00:44:10;;;;;;;28.25;25.25;;;12.00;99.90;;;;;;5072284;28;20628;-64
2022/04/06 00:46:38;;;;;;;16.80;15.15;;;12.00;99.90;;;;;;5064163;28;20638;-64
2022/04/06 00:49:07;;;;;;;17.23;14.82;;;12.00;99.90;;;;;;5061094;28;20248;-65
2022/04/06 00:51:34;;;;;;;24.05;20.48;;;12.00;99.90;;;;;;5060474;28;20281;-65
2022/04/06 00:54:02;;;;;;;14.20;12.73;;;12.00;99.90;;;;;;5066719;28;20289;-65
2022/04/06 00:56:28;;;;;;;20.13;17.98;;;12.00;99.90;;;;;;5072489;28;20227;-65
2022/04/06 00:58:56;;;;;;;18.02;16.20;;;12.00;99.90;;;;;;5071619;28;20235;-63
2022/04/06 01:01:23;;;;;;;31.55;27.90;;;12.10;99.90;;;;;;5072397;28;20224;-64
2022/04/06 01:03:51;;;;;;;16.65;15.05;;;12.10;99.90;;;;;;5071982;28;20227;-64
2022/04/06 01:06:17;;;;;;;15.77;14.13;;;12.00;99.90;;;;;;5072611;28;20230;-65
2022/04/06 01:08:44;;;;;;;24.10;21.52;;;12.00;99.90;;;;;;5071507;28;20227;-64
2022/04/06 01:11:11;;;;;;;20.95;18.75;;;12.00;99.90;;;;;;5072296;28;20224;-64
2022/04/06 01:13:38;;;;;;;19.02;17.13;;;12.00;99.90;;;;;;5072092;28;20232;-65
2022/04/06 01:16:06;;;;;;;27.20;23.50;;;12.00;99.90;;;;;;5072353;28;20216;-65
2022/04/06 01:18:33;;;;;;;19.50;17.55;;;12.10;99.90;;;;;;5072382;28;20224;-65
2022/04/06 01:21:01;;;;;;;18.63;16.33;;;12.00;99.90;;;;;;5072070;28;20350;-65
2022/04/06 01:23:30;;;;;;;20.95;18.67;;;12.10;99.90;;;;;;5072257;28;20236;-65
2022/04/06 01:25:57;;;;;;;20.60;17.63;;;12.00;99.90;;;;;;5063588;28;20230;-65
2022/04/06 01:28:24;;;;;;;28.95;24.88;;;12.10;99.90;;;;;;5061630;28;20224;-65
2022/04/06 01:30:51;;;;;;;17.35;15.65;;;12.10;99.90;;;;;;5067839;28;20232;-65
2022/04/06 01:33:18;;;;;;;15.82;14.23;;;12.10;99.90;;;;;;5071945;28;20224;-65
2022/04/06 01:35:44;;;;;;;25.67;22.98;;;12.10;99.90;;;;;;5071966;28;20231;-65
2022/04/06 01:38:11;;;;;;;16.98;15.20;;;12.10;99.90;;;;;;5069237;28;20223;-64
2022/04/06 01:40:42;;;;;;;14.80;13.35;;;12.10;99.90;;;;;;5072185;28;20232;-64
2022/04/06 01:43:10;;;;;;;27.05;24.15;;;12.10;99.90;;;;;;5071800;28;20243;-64
2022/04/06 01:45:37;;;;;;;18.60;15.82;;;12.10;99.90;;;;;;5072182;28;20224;-64
2022/04/06 01:48:04;;;;;;;28.85;25.77;;;12.20;99.90;;;;;;5071646;28;20223;-64
2022/04/06 01:53:16;;;;;;;21.90;19.55;;;12.20;99.90;;;;;;5071520;28;20231;-64
2022/04/06 01:55:44;;;;;;;118.75;75.43;;;12.20;99.90;;;;;;5072174;28;20298;-64
2022/04/06 01:58:11;;;;;;;50.72;38.72;;;12.10;99.90;;;;;;5071455;28;20224;-64
2022/04/06 02:00:38;;;;;;;36.15;30.13;;;12.10;99.90;;;;;;5072151;28;20228;-65
2022/04/06 02:03:05;;;;;;;43.85;33.05;;;12.20;99.90;;;;;;5071433;28;20228;-65
2022/04/06 02:05:33;;;;;;;27.05;24.10;;;12.20;99.90;;;;;;5072016;28;20224;-64
2022/04/06 02:08:00;;;;;;;40.97;34.72;;;12.20;99.90;;;;;;5058524;28;20224;-64
2022/04/06 02:10:29;;;;;;;23.23;20.80;;;12.20;99.90;;;;;;5072048;28;20255;-64
2022/04/06 02:12:58;;;;;;;19.95;17.95;;;12.10;99.90;;;;;;5074119;28;20295;-64
2022/04/06 02:15:27;;;;;;;26.55;23.20;;;12.20;99.90;;;;;;5075678;28;20227;-65
2022/04/06 02:17:54;;;;;;;17.75;15.68;;;12.10;99.90;;;;;;5074960;28;20228;-65
2022/04/06 02:20:21;;;;;;;14.15;12.75;;;12.10;99.90;;;;;;5075660;28;20228;-64
2022/04/06 02:22:49;;;;;;;17.05;13.73;;;12.10;99.90;;;;;;5075206;28;20238;-65
2022/04/06 02:25:15;;;;;;;26.30;20.90;;;12.20;99.90;;;;;;5072119;28;20578;-64
2022/04/06 02:27:47;;;;;;;28.65;24.38;;;12.20;99.90;;;;;;5057182;28;20221;-64
2022/04/06 02:30:16;;;;;;;18.42;16.55;;;12.20;99.90;;;;;;5063887;28;20236;-64
2022/04/06 02:32:43;;;;;;;44.25;38.78;;;12.20;99.90;;;;;;5073039;28;20212;-64
2022/04/06 02:35:11;;;;;;;32.30;28.83;;;12.20;99.90;;;;;;5074448;28;20220;-64
2022/04/06 02:37:39;;;;;;;32.10;28.65;;;12.20;99.90;;;;;;5073259;28;20224;-65
2022/04/06 02:40:07;;;;;;;20.50;18.30;;;12.20;99.90;;;;;;5074898;28;20642;-64
2022/04/06 02:42:34;;;;;;;24.95;22.42;;;12.20;99.90;;;;;;5074886;28;20362;-64
2022/04/06 02:45:00;;;;;;;27.50;24.63;;;12.20;99.90;;;;;;5070972;28;20224;-65
2022/04/06 02:47:28;;;;;;;29.98;26.23;;;12.20;99.90;;;;;;5069716;28;20224;-65
2022/04/06 02:49:55;;;;;;;19.38;17.40;;;12.20;99.90;;;;;;5072700;28;20358;-64
2022/04/06 02:52:22;;;;;;;25.23;22.52;;;12.20;99.90;;;;;;5084379;28;20231;-64
2022/04/06 02:54:49;;;;;;;29.30;26.08;;;12.10;99.90;;;;;;5074368;28;20638;-64
2022/04/06 02:57:16;;;;;;;19.52;17.50;;;12.20;99.90;;;;;;5073761;28;20228;-65
2022/04/06 02:59:42;;;;;;;21.65;19.33;;;12.20;99.90;;;;;;5074788;28;20220;-65
2022/04/06 03:02:09;;;;;;;26.17;23.48;;;12.20;99.90;;;;;;5074024;28;20681;-64
2022/04/06 03:04:41;;;;;;;25.60;22.75;;;12.20;99.90;;;;;;5073626;28;20232;-64
2022/04/06 03:07:08;;;;;;;29.10;25.67;;;12.20;99.90;;;;;;5074370;28;20235;-64
2022/04/06 03:09:35;;;;;;;28.38;22.20;;;12.20;99.90;;;;;;5074843;28;20220;-64
2022/04/06 03:12:05;;;;;;;30.83;23.65;;;12.10;99.90;;;;;;5073891;28;20248;-64
2022/04/06 03:14:31;;;;;;;30.73;26.48;;;12.10;99.90;;;;;;5074577;28;20219;-64
2022/04/06 03:16:58;;;;;;;22.95;20.45;;;12.10;99.90;;;;;;5074133;28;20255;-64
2022/04/06 03:19:25;;;;;;;51.83;38.83;;;12.10;99.90;;;;;;5061016;28;20224;-65
2022/04/06 03:21:53;;;;;;;38.78;32.80;;;12.20;99.90;;;;;;5074302;28;20224;-64
2022/04/06 03:24:20;;;;;;;29.10;25.52;;;12.10;99.90;;;;;;5073711;28;20231;-65
2022/04/06 03:26:47;;;;;;;59.13;40.63;;;12.10;99.90;;;;;;5066926;28;20224;-64
2022/04/06 03:29:13;;;;;;;20.00;17.42;;;12.20;99.90;;;;;;5071631;28;20228;-65
2022/04/06 03:31:40;;;;;;;17.38;15.57;;;12.00;99.90;;;;;;5074329;28;20232;-65
2022/04/06 03:34:07;;;;;;;27.38;22.73;;;12.10;99.90;;;;;;5073640;28;20228;-65
2022/04/06 03:36:34;;;;;;;20.45;15.88;;;12.10;99.90;;;;;;5074600;28;20680;-65
2022/04/06 03:39:02;;;;;;;23.95;21.40;;;12.10;99.90;;;;;;5072385;28;20228;-65
2022/04/06 03:41:29;;;;;;;18.95;17.00;;;12.10;99.90;;;;;;5074172;28;20224;-65
2022/04/06 03:43:56;;;;;;;17.92;14.23;;;12.20;99.90;;;;;;5073854;28;20662;-65
2022/04/06 03:46:23;;;;;;;15.25;13.65;;;12.10;99.90;;;;;;5070065;28;20235;-64
2022/04/06 03:48:50;;;;;;;17.42;15.73;;;12.20;99.90;;;;;;5073570;28;20248;-65
2022/04/06 03:51:17;;;;;;;36.75;29.77;;;12.20;99.90;;;;;;5073477;28;20212;-65
2022/04/06 03:53:46;;;;;;;21.40;18.35;;;12.10;99.90;;;;;;5073812;28;20224;-64
2022/04/06 03:56:14;;;;;;;15.68;13.75;;;12.10;99.90;;;;;;5073441;28;20240;-64
2022/04/06 03:58:44;;;;;;;28.13;23.27;;;12.10;99.90;;;;;;5073767;28;20227;-64
2022/04/06 04:01:11;;;;;;;20.85;18.75;;;12.10;99.90;;;;;;5073423;28;20243;-65
2022/04/06 04:03:53;;;;;;;15.85;14.23;;;12.10;99.90;;;;;;5073544;28;20685;-65
2022/04/06 04:06:20;;;;;;;28.48;21.85;;;12.10;99.90;;;;;;5073198;28;20228;-65
2022/04/06 04:08:46;;;;;;;22.50;16.40;;;12.20;99.90;;;;;;5060238;28;20307;-65
2022/04/06 04:11:15;;;;;;;18.60;14.48;;;12.10;99.90;;;;;;5073076;28;20239;-64
2022/04/06 04:13:41;;;;;;;27.35;23.23;;;12.10;99.90;;;;;;5060167;28;20235;-65
2022/04/06 04:16:09;;;;;;;17.85;15.00;;;12.10;99.90;;;;;;5072782;28;20223;-65
2022/04/06 04:18:36;;;;;;;29.63;23.67;;;12.10;99.90;;;;;;5073343;28;20304;-65
2022/04/06 04:23:46;;;;;;;20.95;17.20;;;12.10;99.90;;;;;;5073442;28;20219;-65
2022/04/06 04:26:15;;;;;;;14.85;13.25;;;12.10;99.90;;;;;;5065173;28;20238;-65
2022/04/06 04:28:42;;;;;;;32.97;22.67;;;12.20;99.90;;;;;;5070340;28;20220;-65
2022/04/06 04:31:09;;;;;;;17.88;15.25;;;12.20;99.90;;;;;;5072624;28;20223;-64
2022/04/06 04:33:36;;;;;;;25.17;21.52;;;12.20;99.90;;;;;;5072730;28;20562;-64
2022/04/06 04:36:03;;;;;;;19.65;15.77;;;12.20;99.90;;;;;;5072418;28;20235;-65
2022/04/06 04:38:30;;;;;;;25.75;21.50;;;12.20;99.90;;;;;;5071570;28;20696;-65
2022/04/06 04:40:57;;;;;;;23.17;18.83;;;12.10;99.90;;;;;;5072929;28;20238;-65
2022/04/06 04:43:25;;;;;;;20.35;16.50;;;12.10;99.90;;;;;;5072587;28;20681;-65
2022/04/06 04:45:52;;;;;;;18.17;16.27;;;12.10;99.90;;;;;;5072681;28;20220;-65
2022/04/06 04:48:18;;;;;;;20.45;18.08;;;12.10;99.90;;;;;;5072301;28;20299;-65
2022/04/06 04:50:45;;;;;;;24.23;19.60;;;12.10;99.90;;;;;;5074043;28;20220;-65
2022/04/06 04:53:12;;;;;;;29.92;24.70;;;12.10;99.90;;;;;;5080701;28;20693;-65
2022/04/06 04:55:40;;;;;;;21.23;17.85;;;12.00;99.90;;;;;;5071317;28;20234;-65
2022/04/06 04:58:07;;;;;;;20.02;16.90;;;12.10;99.90;;;;;;5072452;28;20748;-65
2022/04/06 05:00:35;;;;;;;23.25;20.75;;;12.10;99.90;;;;;;5072542;28;20227;-65
2022/04/06 05:03:02;;;;;;;16.38;14.05;;;12.10;99.90;;;;;;5072586;28;20230;-65
2022/04/06 05:05:30;;;;;;;25.92;20.70;;;12.10;99.90;;;;;;5072241;28;20224;-65
2022/04/06 05:07:58;;;;;;;20.02;16.70;;;12.10;99.90;;;;;;5072712;28;20555;-64
2022/04/06 05:10:26;;;;;;;20.90;17.25;;;12.10;99.90;;;;;;5071829;28;20310;-65
2022/04/06 05:12:52;;;;;;;18.13;15.82;;;12.10;99.90;;;;;;5072648;28;20224;-65
2022/04/06 05:15:19;;;;;;;43.88;31.20;;;12.10;99.90;;;;;;5071988;28;20249;-64
2022/04/06 05:17:48;;;;;;;21.85;19.55;;;12.10;99.90;;;;;;5072326;28;20224;-65
2022/04/06 05:20:14;;;;;;;23.40;20.85;;;12.10;99.90;;;;;;5071742;28;20242;-64
2022/04/06 05:22:41;;;;;;;34.15;27.92;;;12.20;99.90;;;;;;5072353;28;20250;-65
2022/04/06 05:25:09;;;;;;;28.10;23.08;;;12.20;99.90;;;;;;5070061;28;20567;-64
2022/04/06 05:27:44;;;;;;;21.88;18.80;;;12.20;99.90;;;;;;5069009;28;20220;-64
2022/04/06 05:30:14;;;;;;;24.17;20.33;;;12.20;99.90;;;;;;5071874;28;20308;-65
2022/04/06 05:32:40;;;;;;;29.20;23.88;;;12.10;99.90;;;;;;5066938;28;20224;-65
2022/04/06 05:35:10;;;;;;;31.70;23.65;;;12.10;99.90;;;;;;5064136;28;20224;-65
2022/04/06 05:37:38;;;;;;;17.23;14.30;;;12.10;99.90;;;;;;5067084;28;20224;-65
2022/04/06 05:40:06;;;;;;;28.80;25.05;;;12.10;99.90;;;;;;5065304;28;20215;-64
2022/04/06 05:42:33;;;;;;;25.20;22.52;;;12.10;99.90;;;;;;5071652;28;20666;-65
2022/04/06 05:45:00;;;;;;;29.08;25.08;;;12.10;99.90;;;;;;5071242;28;20259;-65
2022/04/06 05:47:27;;;;;;;24.92;22.23;;;12.10;99.90;;;;;;5062619;28;20235;-65
2022/04/06 05:49:54;;;;;;;34.83;27.52;;;12.20;99.90;;;;;;5076228;28;20219;-65
2022/04/06 05:52:23;;;;;;;24.85;20.83;;;12.20;99.90;;;;;;5075646;28;20239;-64
2022/04/06 05:54:51;;;;;;;32.00;25.30;;;12.20;99.90;;;;;;5075901;28;20226;-65
2022/04/06 05:57:20;;;;;;;26.33;21.10;;;12.30;99.90;;;;;;5075815;28;20219;-65
2022/04/06 05:59:47;;;;;;;28.92;23.30;;;12.30;99.90;;;;;;5075129;28;20224;-65
2022/04/06 06:02:15;;;;;;;28.42;25.55;;;12.20;99.90;;;;;;5075271;28;20230;-65
2022/04/06 06:04:42;;;;;;;21.17;19.13;;;12.20;99.90;;;;;;5075151;28;20220;-65
2022/04/06 06:07:10;;;;;;;21.02;18.63;;;12.30;99.90;;;;;;5076055;28;20231;-65
2022/04/06 06:09:39;;;;;;;19.52;15.98;;;12.30;99.90;;;;;;5074688;28;20591;-64
2022/04/06 06:12:06;;;;;;;21.85;17.90;;;12.30;99.90;;;;;;5075689;28;20240;-65
2022/04/06 06:14:33;;;;;;;29.95;25.08;;;12.40;99.90;;;;;;5070599;28;20309;-65
2022/04/06 06:16:59;;;;;;;56.53;45.88;;;12.40;99.90;;;;;;5055553;28;20243;-64
2022/04/06 06:19:26;;;;;;;31.92;26.65;;;12.40;99.90;;;;;;5055560;28;20602;-64
2022/04/06 06:21:53;;;;;;;30.50;25.00;;;12.40;99.90;;;;;;5055669;28;20280;-65
2022/04/06 06:24:26;;;;;;;46.20;36.45;;;12.40;99.90;;;;;;5054944;28;20224;-64
2022/04/06 06:26:54;;;;;;;34.03;27.88;;;12.50;99.90;;;;;;5055864;28;20216;-65
2022/04/06 06:29:21;;;;;;;19.52;16.30;;;12.40;99.90;;;;;;5055016;28;20233;-65
2022/04/06 06:31:48;;;;;;;42.10;32.95;;;12.50;99.90;;;;;;5060819;28;20698;-65
2022/04/06 06:34:15;;;;;;;27.85;22.02;;;12.50;99.90;;;;;;5075007;28;20219;-64
2022/04/06 06:36:42;;;;;;;57.20;39.90;;;12.50;99.90;;;;;;5075260;28;20219;-64
2022/04/06 06:39:09;;;;;;;75.65;49.85;;;12.50;99.90;;;;;;5070074;28;20217;-65
2022/04/06 06:41:36;;;;;;;25.27;19.02;;;12.50;99.90;;;;;;5074053;28;20224;-65
2022/04/06 06:44:05;;;;;;;30.33;24.52;;;12.60;99.90;;;;;;5075233;28;20216;-64
2022/04/06 06:46:32;;;;;;;20.80;18.60;;;12.50;99.90;;;;;;5074610;28;20243;-64
2022/04/06 06:49:03;;;;;;;21.25;17.58;;;12.60;99.90;;;;;;5075097;28;20303;-64
2022/04/06 06:51:30;;;;;;;18.90;15.20;;;12.60;99.90;;;;;;5074551;28;20242;-64
2022/04/06 06:53:57;;;;;;;19.73;16.70;;;12.60;99.90;;;;;;5075348;28;20227;-65
2022/04/06 06:56:24;;;;;;;23.15;18.48;;;12.50;99.90;;;;;;5074590;28;20239;-65
2022/04/06 06:58:51;;;;;;;17.23;15.15;;;12.50;99.90;;;;;;5074288;28;20565;-64
2022/04/06 07:01:24;;;;;;;24.83;16.33;;;12.40;99.90;;;;;;5074571;28;20297;-66
2022/04/06 07:03:51;;;;;;;25.65;19.60;;;12.40;99.90;;;;;;5075078;28;20686;-65
2022/04/06 07:06:18;;;;;;;19.98;16.52;;;12.40;99.90;;;;;;5074431;28;20223;-64
2022/04/06 07:08:45;;;;;;;28.88;20.52;;;12.40;99.90;;;;;;5074914;28;20725;-64
2022/04/06 07:11:12;;;;;;;40.17;32.55;;;12.40;99.90;;;;;;5074809;28;20220;-65
2022/04/06 07:13:39;;;;;;;36.22;30.20;;;12.50;99.90;;;;;;5074447;28;20219;-65
2022/04/06 07:16:06;;;;;;;27.08;24.10;;;12.60;99.90;;;;;;5075043;28;20570;-66
2022/04/06 07:18:34;;;;;;;62.80;47.60;;;12.60;99.90;;;;;;5074164;28;20710;-65
2022/04/06 07:21:02;;;;;;;30.60;24.13;;;12.70;99.90;;;;;;5074626;28;20224;-66
2022/04/06 07:23:29;;;;;;;40.65;28.08;;;12.60;99.90;;;;;;5074357;28;20238;-65
2022/04/06 07:25:56;;;;;;;27.58;23.70;;;12.70;99.90;;;;;;5074606;28;20220;-65
2022/04/06 07:28:23;;;;;;;48.33;36.15;;;12.80;99.90;;;;;;5074052;28;20230;-65
2022/04/06 07:30:50;;;;;;;27.95;23.05;;;12.80;99.90;;;;;;5074679;28;20228;-66
2022/04/06 07:33:17;;;;;;;21.33;19.02;;;12.90;99.90;;;;;;5074338;28;20236;-65
2022/04/06 07:35:46;;;;;;;26.92;19.75;;;12.90;99.90;;;;;;5074284;28;20566;-66
2022/04/06 07:38:14;;;;;;;22.17;19.10;;;13.00;99.90;;;;;;5074338;28;20251;-65
2022/04/06 07:40:41;;;;;;;30.10;20.85;;;13.00;99.90;;;;;;5067883;28;20220;-64
2022/04/06 07:43:09;;;;;;;19.75;17.65;;;13.10;99.90;;;;;;5074285;28;20281;-65
2022/04/06 07:45:36;;;;;;;65.63;51.45;;;13.10;99.90;;;;;;5073672;28;20232;-65
2022/04/06 07:48:04;;;;;;;34.45;26.85;;;13.10;99.90;;;;;;5074214;28;20223;-64
2022/04/06 07:50:31;;;;;;;32.33;24.00;;;13.20;99.90;;;;;;5073488;28;20228;-66
2022/04/06 07:52:59;;;;;;;29.60;22.55;;;13.30;99.90;;;;;;5074269;28;20232;-65
2022/04/06 07:55:27;;;;;;;26.70;21.27;;;13.40;99.90;;;;;;5073578;28;20228;-66
2022/04/06 07:57:54;;;;;;;19.58;15.70;;;13.50;99.90;;;;;;5073928;28;20693;-65
2022/04/06 08:00:21;;;;;;;20.10;17.70;;;13.50;99.90;;;;;;5073432;28;20686;-66
2022/04/06 08:02:49;;;;;;;18.50;16.55;;;13.60;99.90;;;;;;5073886;28;20224;-66
2022/04/06 08:05:17;;;;;;;20.83;15.98;;;13.70;99.90;;;;;;5073487;28;20227;-65
2022/04/06 08:07:44;;;;;;;18.37;15.73;;;13.80;99.90;;;;;;5073559;28;20220;-65
2022/04/06 08:10:14;;;;;;;19.58;15.82;;;13.80;99.90;;;;;;5073720;28;20830;-65
2022/04/06 08:12:41;;;;;;;19.90;17.80;;;13.80;99.90;;;;;;5073181;28;20674;-65
2022/04/06 08:15:09;;;;;;;16.07;14.43;;;13.80;99.90;;;;;;5073671;28;20216;-65
2022/04/06 08:17:37;;;;;;;25.80;20.40;;;13.90;99.90;;;;;;5073116;28;20463;-65
2022/04/06 08:20:05;;;;;;;15.50;12.40;;;13.90;99.90;;;;;;5073570;28;20470;-64
2022/04/06 08:22:41;;;;;;;16.88;15.13;;;13.90;99.90;;;;;;5072941;28;20688;-64
2022/04/06 08:25:11;;;;;;;18.20;13.87;;;14.00;99.90;;;;;;5073299;28;20373;-65
2022/04/06 08:27:44;;;;;;;14.30;11.45;;;14.10;99.90;;;;;;5072988;28;20481;-65
2022/04/06 08:30:22;;;;;;;;;;;;;;;;;;;;;
2022/04/06 08:32:58;;;;;;;18.37;13.43;;;14.10;99.90;;;;;;5071291;28;20425;-66
2022/04/06 08:35:27;;;;;;;23.13;17.90;;;14.10;99.90;;;;;;5073384;28;20462;-65
2022/04/06 08:37:54;;;;;;;22.20;16.00;;;14.10;99.90;;;;;;5072704;28;20533;-65
2022/04/06 08:40:22;;;;;;;24.23;18.00;;;14.10;99.90;;;;;;5073054;28;20459;-65
2022/04/06 08:42:55;;;;;;;20.85;15.82;;;14.10;99.90;;;;;;5072747;28;20455;-65
2022/04/06 08:45:22;;;;;;;13.73;12.33;;;14.10;99.90;;;;;;5072960;28;20243;-65
2022/04/06 08:47:51;;;;;;;31.40;22.63;;;14.10;99.90;;;;;;5072623;28;20482;-64
2022/04/06 08:50:23;;;;;;;23.17;17.60;;;14.20;99.90;;;;;;5072629;28;20297;-65
2022/04/06 08:52:50;;;;;;;13.57;12.15;;;14.20;99.90;;;;;;5072628;28;20682;-65
2022/04/06 08:55:17;;;;;;;23.05;20.05;;;14.10;99.90;;;;;;5072954;28;20219;-65
2022/04/06 08:57:44;;;;;;;36.65;26.42;;;14.10;99.90;;;;;;5072638;28;20224;-64
2022/04/06 09:00:15;;;;;;;24.20;20.00;;;14.10;99.90;;;;;;5072816;28;20215;-65
2022/04/06 09:02:42;;;;;;;18.70;14.33;;;14.20;99.90;;;;;;5072297;28;20467;-65
2022/04/06 09:05:11;;;;;;;33.97;26.73;;;14.10;99.90;;;;;;5072852;28;20466;-66
2022/04/06 09:07:39;;;;;;;60.25;42.97;;;14.10;99.90;;;;;;5072329;28;20466;-65
2022/04/06 09:10:07;;;;;;;13.40;11.80;;;14.10;99.90;;;;;;5072808;28;20570;-65
2022/04/06 09:12:35;;;;;;;12.57;11.37;;;14.10;99.90;;;;;;5072088;28;20474;-65
2022/04/06 09:15:08;;;;;;;28.17;19.53;;;14.20;99.90;;;;;;5072629;28;20533;-65
2022/04/06 09:17:45;;;;;;;22.03;16.63;;;14.30;99.90;;;;;;5071806;28;20969;-65
2022/04/06 09:20:12;;;;;;;23.70;18.67;;;14.30;99.90;;;;;;5072212;28;20960;-65
2022/04/06 09:22:39;;;;;;;29.80;22.37;;;14.40;99.90;;;;;;5072121;28;20481;-65
2022/04/06 09:25:07;;;;;;;23.40;16.07;;;14.40;99.90;;;;;;5072632;28;20466;-65
2022/04/06 09:27:34;;;;;;;19.20;13.10;;;14.30;99.90;;;;;;5072219;28;20805;-66
2022/04/06 09:30:05;;;;;;;14.70;11.40;;;14.40;99.90;;;;;;5072640;28;20458;-66
2022/04/06 09:32:31;;;;;;;18.80;13.20;;;14.40;99.90;;;;;;5072154;28;20527;-66
2022/04/06 09:35:00;;;;;;;14.40;11.90;;;14.50;99.90;;;;;;5072392;28;20458;-65
2022/04/06 09:37:28;;;;;;;27.27;19.90;;;14.50;99.90;;;;;;5072396;28;20462;-66
2022/04/06 09:39:57;;;;;;;17.80;15.60;;;14.50;99.90;;;;;;5071972;28;20477;-65
2022/04/06 09:42:25;;;;;;;13.23;10.10;;;14.60;99.90;;;;;;5054877;28;20592;-66
2022/04/06 09:47:40;;;;;;;17.07;13.63;;;14.60;99.90;;;;;;5071848;28;20473;-66
2022/04/06 09:50:14;;;;;;;18.70;14.47;;;14.60;99.90;;;;;;5072556;28;20484;-64
2022/04/06 09:52:43;;;;;;;17.97;10.43;;;14.60;99.90;;;;;;5072033;28;20495;-65
2022/04/06 09:55:11;;;;;;;17.57;13.37;;;14.60;99.90;;;;;;5072516;28;20855;-65
2022/04/06 09:57:45;;;;;;;15.17;12.70;;;14.60;99.90;;;;;;5071810;28;20556;-64
2022/04/06 10:00:17;;;;;;;16.30;11.07;;;14.60;99.90;;;;;;5072186;28;20462;-65
2022/04/06 10:02:45;;;;;;;14.63;9.93;;;14.60;99.90;;;;;;5071755;28;20470;-65
2022/04/06 10:05:19;;;;;;;23.77;21.00;;;14.60;99.90;;;;;;5072367;28;20454;-65
2022/04/06 10:07:46;;;;;;;19.37;15.40;;;14.70;99.90;;;;;;5071844;28;20465;-65
2022/04/06 10:10:13;;;;;;;14.80;11.70;;;14.80;99.90;;;;;;5072206;28;20461;-65
2022/04/06 10:12:41;;;;;;;15.03;12.13;;;14.80;99.90;;;;;;5071637;28;20466;-64
2022/04/06 10:15:08;;;;;;;10.97;9.87;;;14.80;99.90;;;;;;5072216;28;20556;-64
2022/04/06 10:17:38;;;;;;;13.73;10.87;;;14.80;99.90;;;;;;5072159;28;20462;-65
2022/04/06 10:20:16;;;;;;;14.83;13.17;;;14.80;99.90;;;;;;5071865;28;20999;-65
2022/04/06 10:23:01;;;;;;;11.07;9.77;;;14.90;99.90;;;;;;5071545;28;20462;-64
2022/04/06 10:25:40;;;;;;;19.17;15.10;;;14.90;99.60;;;;;;5072021;28;20576;-64
2022/04/06 10:28:12;;;;;;;11.20;8.50;;;14.90;99.60;;;;;;5071702;28;20893;-65
2022/04/06 10:30:39;;;;;;;11.00;8.73;;;14.90;99.70;;;;;;5071806;28;20482;-65
2022/04/06 10:33:20;;;;;;;14.60;11.30;;;14.90;99.60;;;;;;5073287;28;20465;-65
2022/04/06 10:35:47;;;;;;;16.50;12.37;;;14.90;99.70;;;;;;5075187;28;20462;-65
2022/04/06 10:38:18;;;;;;;17.43;13.23;;;15.00;99.80;;;;;;5075362;28;20469;-65
2022/04/06 10:40:58;;;;;;;29.53;21.60;;;14.90;99.40;;;;;;5074816;28;20498;-64
2022/04/06 10:43:50;;;;;;;21.80;17.43;;;14.90;99.40;;;;;;5075445;28;20477;-66
2022/04/06 10:46:20;;;;;;;17.13;12.60;;;14.90;99.40;;;;;;5055081;28;21571;-65
2022/04/06 10:49:00;;;;;;;15.10;12.37;;;14.90;99.40;;;;;;5055287;28;20474;-65
2022/04/06 10:51:28;;;;;;;16.40;11.10;;;14.80;99.30;;;;;;5054969;28;21267;-65
2022/04/06 10:53:56;;;;;;;12.70;11.37;;;14.80;98.90;;;;;;5055264;28;20537;-65
2022/04/06 10:56:24;;;;;;;14.17;11.07;;;14.80;98.90;;;;;;5054694;28;20455;-65
2022/04/06 10:59:10;;;;;;;11.80;10.30;;;14.80;98.90;;;;;;5055246;28;20462;-66
2022/04/06 11:01:38;;;;;;;12.13;9.10;;;14.90;98.50;;;;;;5054494;28;20475;-65
2022/04/06 11:04:09;;;;;;;14.20;8.60;;;15.00;98.10;;;;;;5055118;28;20785;-65
2022/04/06 11:06:59;;;;;;;10.30;8.77;;;15.00;97.30;;;;;;5054642;28;20843;-65
2022/04/06 11:12:15;;;;;;;14.23;10.10;;;15.00;97.40;;;;;;5054196;28;20502;-66
2022/04/06 11:14:43;;;;;;;11.67;8.87;;;15.00;97.30;;;;;;5054824;28;20468;-65
2022/04/06 11:17:37;;;;;;;17.80;11.60;;;14.90;97.10;;;;;;5054526;28;20987;-65
2022/04/06 11:20:09;;;;;;;19.70;13.80;;;14.90;97.30;;;;;;5054646;28;20470;-65
2022/04/06 11:22:38;;;;;;;12.60;11.30;;;15.00;97.20;;;;;;5054665;28;20845;-66
2022/04/06 11:25:10;;;;;;;18.97;14.00;;;14.90;97.00;;;;;;5054296;28;20524;-66
2022/04/06 11:27:38;;;;;;;13.67;12.10;;;14.90;96.90;;;;;;5054307;28;20475;-65
2022/04/06 11:30:07;;;;;;;11.13;10.07;;;14.90;97.00;;;;;;5054118;28;21146;-64
2022/04/06 11:32:35;;;;;;;10.03;8.30;;;15.00;97.30;;;;;;5054212;28;20958;-64
2022/04/06 11:35:05;;;;;;;14.07;11.90;;;15.00;97.00;;;;;;5054072;28;20475;-64
2022/04/06 11:37:33;;;;;;;13.33;10.43;;;14.90;97.10;;;;;;5054411;28;20802;-64
2022/04/06 11:40:00;;;;;;;11.83;10.47;;;14.90;97.20;;;;;;5059284;28;20562;-64
2022/04/06 11:42:29;;;;;;;14.90;10.67;;;14.90;97.30;;;;;;5057177;28;20475;-65
2022/04/06 11:44:56;;;;;;;18.03;9.77;;;14.90;97.50;;;;;;5069383;28;20476;-65
2022/04/06 11:47:30;;;;;;;8.87;8.03;;;14.80;97.60;;;;;;5070542;28;20478;-65
2022/04/06 11:49:58;;;;;;;10.63;8.00;;;14.80;97.80;;;;;;5070855;28;20470;-65
2022/04/06 11:52:25;;;;;;;17.90;13.97;;;14.80;97.90;;;;;;5069593;28;20470;-66
2022/04/06 11:54:53;;;;;;;15.03;11.57;;;14.80;98.00;;;;;;5071613;28;20463;-65
2022/04/06 11:57:20;;;;;;;16.90;12.37;;;14.70;98.00;;;;;;5070306;28;20833;-65
2022/04/06 11:59:55;;;;;;;17.83;13.93;;;14.70;98.00;;;;;;5071656;28;20477;-65
2022/04/06 12:02:22;;;;;;;15.90;9.87;;;14.70;98.00;;;;;;5066125;28;20466;-64
2022/04/06 12:05:01;;;;;;;14.60;11.60;;;14.50;97.80;;;;;;5069086;28;20461;-65
2022/04/06 12:07:27;;;;;;;10.80;9.67;;;14.50;98.00;;;;;;5070553;28;21286;-64
2022/04/06 12:09:54;;;;;;;14.07;9.50;;;14.50;98.00;;;;;;5071616;28;20476;-64
2022/04/06 12:12:22;;;;;;;14.93;11.83;;;14.50;98.10;;;;;;5068349;28;20489;-65
2022/04/06 12:14:49;;;;;;;15.27;12.07;;;14.50;98.00;;;;;;5070046;28;20462;-65
2022/04/06 12:17:18;;;;;;;13.30;10.87;;;14.40;98.10;;;;;;5070380;28;20216;-65
2022/04/06 12:19:44;;;;;;;17.80;12.43;;;14.40;98.10;;;;;;5068972;28;20535;-65
2022/04/06 12:22:12;;;;;;;16.27;14.20;;;14.40;97.90;;;;;;5068825;28;20476;-65
2022/04/06 12:24:39;;;;;;;15.27;11.57;;;14.30;97.80;;;;;;5070352;28;20455;-64
2022/04/06 12:27:07;;;;;;;12.50;10.10;;;14.30;97.90;;;;;;5070317;28;20965;-64
2022/04/06 12:29:35;;;;;;;12.93;10.93;;;14.30;97.90;;;;;;5070096;28;20458;-65
2022/04/06 12:32:03;;;;;;;16.58;14.70;;;14.30;97.90;;;;;;5070015;28;20471;-65
2022/04/06 12:34:35;;;;;;;10.07;8.95;;;14.30;97.90;;;;;;5069370;28;20661;-65
2022/04/06 12:39:48;;;;;;;15.83;14.30;;;14.30;97.80;;;;;;5070473;28;20235;-66
2022/04/06 12:42:15;;;;;;;12.80;11.50;;;14.20;97.90;;;;;;5067900;28;21242;-65
2022/04/06 12:44:56;;;;;;;10.50;9.00;;;14.30;97.90;;;;;;5067071;28;20232;-64
2022/04/06 12:47:24;;;;;;;10.87;9.40;;;14.30;97.80;;;;;;5068104;28;20466;-64
2022/04/06 12:49:52;;;;;;;9.37;8.37;;;14.20;97.80;;;;;;5067322;28;20458;-64